Time;durP1;ratioP1;P1;durP2;ratioP2;P2;SDS_P1;SDS_P2;PMS_P1;PMS_P2;Temp;Humidity;BMP_temperature;BMP_pressure;BME280_temperature;BME280_humidity;BME280_pressure;Samples;Min_cycle;Max_cycle;Signal;HPM_P1;HPM_P2
2021/12/28 00:00:21;;;;;;;4.15;3.03;;;6.00;99.90;;;;;;5016363;28;20030;-84
2021/12/28 00:02:48;;;;;;;5.10;3.38;;;6.10;99.90;;;;;;5030725;28;20121;-83
2021/12/28 00:05:15;;;;;;;4.63;3.50;;;6.10;99.90;;;;;;5032674;28;20041;-84
2021/12/28 00:07:41;;;;;;;4.47;3.33;;;6.10;99.90;;;;;;5017668;28;20034;-85
2021/12/28 00:10:10;;;;;;;3.22;2.65;;;6.10;99.90;;;;;;5036254;28;20103;-84
2021/12/28 00:12:38;;;;;;;5.05;3.22;;;6.10;99.90;;;;;;5034544;28;20049;-84
2021/12/28 00:18:02;;;;;;;6.82;3.63;;;6.10;99.90;;;;;;5035991;28;20041;-84
2021/12/28 00:20:30;;;;;;;5.97;3.75;;;6.10;99.90;;;;;;5018957;28;20039;-83
2021/12/28 00:22:56;;;;;;;5.65;3.05;;;6.10;99.90;;;;;;5036771;28;20121;-84
2021/12/28 00:25:23;;;;;;;6.65;3.33;;;6.10;99.90;;;;;;5035866;28;20055;-83
2021/12/28 00:27:49;;;;;;;4.80;3.00;;;6.10;99.90;;;;;;5026924;28;20013;-84
2021/12/28 00:30:15;;;;;;;5.50;3.55;;;6.10;99.90;;;;;;5035863;28;20022;-84
2021/12/28 00:32:41;;;;;;;4.30;3.20;;;6.10;99.90;;;;;;5051432;28;20017;-81
2021/12/28 00:35:07;;;;;;;4.60;2.95;;;6.10;99.90;;;;;;5052800;28;20018;-84
2021/12/28 00:37:33;;;;;;;5.47;3.30;;;6.10;99.90;;;;;;5037849;28;20029;-84
2021/12/28 00:39:58;;;;;;;3.67;3.00;;;6.10;99.90;;;;;;5024818;28;20021;-84
2021/12/28 00:42:24;;;;;;;3.72;2.40;;;6.10;99.90;;;;;;5020257;28;20125;-83
2021/12/28 00:44:50;;;;;;;3.17;2.58;;;6.20;99.90;;;;;;5041342;28;20018;-84
2021/12/28 00:47:16;;;;;;;6.15;3.20;;;6.20;99.90;;;;;;5025011;28;20098;-85
2021/12/28 00:49:42;;;;;;;4.45;2.42;;;6.20;99.90;;;;;;5039580;28;20632;-84
2021/12/28 00:52:08;;;;;;;2.58;1.70;;;6.20;99.90;;;;;;5030794;28;20081;-84
2021/12/28 00:54:34;;;;;;;2.28;1.65;;;6.20;99.90;;;;;;5023673;28;20030;-84
2021/12/28 00:57:01;;;;;;;2.50;1.77;;;6.20;99.90;;;;;;5031842;28;20026;-84
2021/12/28 00:59:28;;;;;;;1.73;1.50;;;6.20;99.90;;;;;;5025830;28;20117;-84
2021/12/28 01:01:54;;;;;;;3.13;2.10;;;6.20;99.90;;;;;;5023599;28;20025;-84
2021/12/28 01:04:20;;;;;;;2.63;1.70;;;6.20;99.90;;;;;;5016911;28;20021;-84
2021/12/28 01:06:45;;;;;;;2.13;1.75;;;6.20;99.90;;;;;;5016915;28;20505;-84
2021/12/28 01:09:11;;;;;;;2.42;1.95;;;6.20;99.90;;;;;;5001872;28;20445;-84
2021/12/28 01:11:37;;;;;;;3.15;2.13;;;6.20;99.90;;;;;;5017155;28;20037;-85
2021/12/28 01:14:03;;;;;;;2.50;1.90;;;6.20;99.90;;;;;;5019478;28;20037;-83
2021/12/28 01:16:29;;;;;;;3.17;1.98;;;6.10;99.90;;;;;;5033002;28;20034;-84
2021/12/28 01:18:55;;;;;;;2.75;1.65;;;6.10;99.90;;;;;;5023044;28;20072;-82
2021/12/28 01:21:20;;;;;;;2.90;1.70;;;6.10;99.90;;;;;;5032299;28;20101;-83
2021/12/28 01:23:46;;;;;;;2.78;1.92;;;6.00;99.90;;;;;;5018621;28;20026;-85
2021/12/28 01:26:12;;;;;;;2.53;1.80;;;6.00;99.90;;;;;;5026930;28;20101;-84
2021/12/28 01:28:37;;;;;;;4.35;1.92;;;5.90;99.90;;;;;;5021631;28;20026;-84
2021/12/28 01:31:04;;;;;;;2.50;1.80;;;5.80;99.90;;;;;;5033639;28;20017;-82
2021/12/28 01:33:30;;;;;;;3.92;2.00;;;5.70;99.90;;;;;;5037066;28;20018;-84
2021/12/28 01:35:58;;;;;;;3.03;1.50;;;5.50;99.90;;;;;;5036419;28;20037;-83
2021/12/28 01:38:24;;;;;;;2.88;2.13;;;5.50;99.90;;;;;;5035898;28;20023;-84
2021/12/28 01:40:50;;;;;;;3.15;1.90;;;5.40;99.90;;;;;;5029349;28;20030;-84
2021/12/28 01:43:20;;;;;;;4.10;1.90;;;5.40;99.90;;;;;;5029856;28;20014;-82
2021/12/28 01:45:53;;;;;;;2.88;2.03;;;5.30;99.90;;;;;;5023563;28;20022;-82
2021/12/28 01:48:25;;;;;;;2.40;1.80;;;5.20;99.90;;;;;;5017584;28;20014;-84
2021/12/28 01:50:55;;;;;;;2.75;1.92;;;5.20;99.90;;;;;;5017582;28;20029;-83
2021/12/28 01:53:22;;;;;;;2.90;1.48;;;5.20;99.90;;;;;;5018380;28;20102;-83
2021/12/28 01:55:52;;;;;;;3.00;1.85;;;5.10;99.90;;;;;;5033579;28;20010;-83
2021/12/28 01:58:18;;;;;;;2.90;1.60;;;5.10;99.90;;;;;;5018158;28;20029;-83
2021/12/28 02:00:46;;;;;;;2.22;1.77;;;5.10;99.90;;;;;;5018084;28;20026;-83
2021/12/28 02:03:15;;;;;;;1.88;1.52;;;5.00;99.90;;;;;;5017989;28;20041;-83
2021/12/28 02:05:42;;;;;;;4.13;1.75;;;4.90;99.90;;;;;;5016382;28;20773;-84
2021/12/28 02:08:09;;;;;;;1.95;1.60;;;4.90;99.90;;;;;;5019227;28;20022;-83
2021/12/28 02:10:36;;;;;;;1.33;1.23;;;4.80;99.90;;;;;;5015598;28;20026;-83
2021/12/28 02:13:05;;;;;;;2.08;1.50;;;4.80;99.90;;;;;;5029056;28;20120;-83
2021/12/28 02:15:31;;;;;;;1.55;1.33;;;4.80;99.90;;;;;;5034856;28;20017;-83
2021/12/28 02:17:56;;;;;;;1.88;1.27;;;4.70;99.90;;;;;;5037390;28;20497;-83
2021/12/28 02:20:23;;;;;;;1.48;1.25;;;4.70;99.90;;;;;;5023021;28;20034;-82
2021/12/28 02:22:49;;;;;;;1.30;1.13;;;4.60;99.90;;;;;;5053150;28;20013;-80
2021/12/28 02:25:17;;;;;;;1.67;1.30;;;4.60;99.90;;;;;;5057286;28;20036;-82
2021/12/28 02:27:43;;;;;;;2.63;1.33;;;4.60;99.90;;;;;;5038691;28;20081;-81
2021/12/28 02:30:13;;;;;;;3.00;1.65;;;4.60;99.90;;;;;;5015905;28;20041;-83
2021/12/28 02:32:40;;;;;;;2.25;1.17;;;4.60;99.90;;;;;;5019587;28;20057;-80
2021/12/28 02:35:12;;;;;;;1.50;1.17;;;4.50;99.90;;;;;;5019733;28;20249;-82
2021/12/28 02:37:38;;;;;;;2.25;1.10;;;4.50;99.90;;;;;;5033816;28;20036;-83
2021/12/28 02:40:06;;;;;;;1.30;0.98;;;4.50;99.90;;;;;;5029036;28;20092;-84
2021/12/28 02:42:32;;;;;;;2.13;1.35;;;4.50;99.90;;;;;;4999731;28;20041;-84
2021/12/28 02:45:02;;;;;;;2.22;1.20;;;4.50;99.90;;;;;;5030693;28;20025;-82
2021/12/28 02:47:28;;;;;;;3.58;1.30;;;4.50;99.90;;;;;;5028526;28;20041;-83
2021/12/28 02:49:54;;;;;;;1.35;1.23;;;4.50;99.90;;;;;;5027134;28;20025;-84
2021/12/28 02:52:20;;;;;;;3.80;1.17;;;4.40;99.90;;;;;;4998716;28;20467;-84
2021/12/28 02:54:47;;;;;;;4.70;1.52;;;4.40;99.90;;;;;;5004763;28;20029;-84
2021/12/28 02:57:12;;;;;;;2.28;1.25;;;4.40;99.90;;;;;;5008247;28;20018;-84
2021/12/28 02:59:50;;;;;;;1.15;1.00;;;4.40;99.90;;;;;;5010402;28;20029;-82
2021/12/28 03:02:17;;;;;;;2.10;1.27;;;4.40;99.90;;;;;;5027712;28;20037;-84
2021/12/28 03:04:43;;;;;;;3.13;1.35;;;4.40;99.90;;;;;;5046444;28;20014;-83
2021/12/28 03:07:09;;;;;;;2.67;1.38;;;4.30;99.90;;;;;;5050921;28;20037;-82
2021/12/28 03:09:36;;;;;;;1.58;0.68;;;4.30;99.90;;;;;;5033116;28;20025;-83
2021/12/28 03:12:04;;;;;;;3.05;1.45;;;4.30;99.90;;;;;;5034332;28;20035;-83
2021/12/28 03:14:30;;;;;;;3.58;1.33;;;4.30;99.90;;;;;;5030749;28;20025;-79
2021/12/28 03:16:56;;;;;;;1.42;1.05;;;4.30;99.90;;;;;;5036143;28;20141;-81
2021/12/28 03:19:22;;;;;;;1.90;1.00;;;4.20;99.90;;;;;;5033769;28;20037;-84
2021/12/28 03:21:49;;;;;;;1.83;1.20;;;4.20;99.90;;;;;;5003389;28;20053;-80
2021/12/28 03:24:15;;;;;;;2.05;1.27;;;4.20;99.90;;;;;;5027613;28;20022;-79
2021/12/28 03:26:40;;;;;;;4.38;0.80;;;4.30;99.90;;;;;;5033693;28;20035;-80
2021/12/28 03:29:07;;;;;;;2.03;0.90;;;4.20;99.90;;;;;;5042268;28;20025;-80
2021/12/28 03:31:32;;;;;;;1.42;0.57;;;4.20;99.90;;;;;;5041902;28;20124;-80
2021/12/28 03:33:58;;;;;;;1.25;0.77;;;4.20;99.90;;;;;;5025728;28;20026;-82
2021/12/28 03:36:28;;;;;;;1.20;0.57;;;4.20;99.90;;;;;;5023427;28;20085;-82
2021/12/28 03:38:55;;;;;;;3.13;0.90;;;4.20;99.90;;;;;;5021970;28;20379;-79
2021/12/28 03:41:22;;;;;;;2.58;0.82;;;4.20;99.90;;;;;;5020147;28;20041;-80
2021/12/28 03:43:51;;;;;;;0.93;0.63;;;4.20;99.90;;;;;;5018009;28;20585;-83
2021/12/28 03:46:17;;;;;;;0.70;0.50;;;4.10;99.90;;;;;;5015440;28;20069;-80
2021/12/28 03:48:44;;;;;;;2.13;0.47;;;4.10;99.90;;;;;;5018311;28;20159;-80
2021/12/28 03:51:10;;;;;;;1.02;0.70;;;4.10;99.90;;;;;;5038524;28;20029;-79
2021/12/28 03:53:36;;;;;;;1.50;0.70;;;4.10;99.90;;;;;;5038011;28;20025;-80
2021/12/28 03:56:03;;;;;;;1.60;0.80;;;4.00;99.90;;;;;;5020558;28;20034;-80
2021/12/28 03:58:32;;;;;;;0.50;0.50;;;4.00;99.90;;;;;;5034320;28;20067;-80
2021/12/28 04:00:57;;;;;;;0.70;0.40;;;3.90;99.90;;;;;;5020396;28;20406;-81
2021/12/28 04:03:23;;;;;;;1.52;0.85;;;3.90;99.90;;;;;;5041310;28;20021;-80
2021/12/28 04:05:49;;;;;;;0.50;0.50;;;3.90;99.90;;;;;;5039157;28;20121;-81
2021/12/28 04:08:21;;;;;;;1.63;0.60;;;3.80;99.90;;;;;;5037706;28;20049;-83
2021/12/28 04:10:54;;;;;;;1.35;0.60;;;3.80;99.90;;;;;;5037454;28;20075;-81
2021/12/28 04:13:21;;;;;;;0.40;0.40;;;3.70;99.90;;;;;;5035505;28;20049;-81
2021/12/28 04:15:47;;;;;;;2.05;0.70;;;3.70;99.90;;;;;;5038239;28;20194;-80
2021/12/28 04:18:14;;;;;;;1.73;0.70;;;3.70;99.90;;;;;;5035503;28;20505;-82
2021/12/28 04:20:40;;;;;;;0.80;0.55;;;3.70;99.90;;;;;;5062717;23;20063;-79
2021/12/28 04:23:06;;;;;;;0.38;0.38;;;3.70;99.90;;;;;;5038822;28;20045;-83
2021/12/28 04:25:33;;;;;;;0.47;0.47;;;3.70;99.90;;;;;;5052572;28;20021;-82
2021/12/28 04:27:59;;;;;;;1.17;0.40;;;3.70;99.90;;;;;;5043694;28;20033;-83
2021/12/28 04:30:25;;;;;;;0.70;0.60;;;3.70;99.90;;;;;;5042936;28;20075;-83
2021/12/28 04:32:51;;;;;;;2.40;0.80;;;3.80;99.90;;;;;;5061407;28;20029;-82
2021/12/28 04:35:17;;;;;;;0.88;0.70;;;3.70;99.90;;;;;;5059976;28;20012;-82
2021/12/28 04:37:43;;;;;;;0.88;0.32;;;3.70;99.90;;;;;;5048248;28;20044;-80
2021/12/28 04:40:11;;;;;;;2.33;0.60;;;3.80;99.90;;;;;;5076606;28;20108;-82
2021/12/28 04:42:38;;;;;;;1.45;0.35;;;3.80;99.90;;;;;;5041567;28;20100;-83
2021/12/28 04:45:07;;;;;;;1.95;0.60;;;3.80;99.90;;;;;;5061759;28;20685;-82
2021/12/28 04:47:33;;;;;;;0.40;0.30;;;3.80;99.90;;;;;;5065417;28;20021;-82
2021/12/28 04:49:59;;;;;;;1.30;0.50;;;3.80;99.90;;;;;;5047292;28;20024;-82
2021/12/28 04:52:25;;;;;;;1.17;0.57;;;3.80;99.90;;;;;;5036890;28;20067;-83
2021/12/28 04:54:51;;;;;;;2.42;0.70;;;3.80;99.90;;;;;;5049050;28;20076;-83
2021/12/28 04:57:16;;;;;;;1.42;0.60;;;3.80;99.90;;;;;;5025694;28;20033;-83
2021/12/28 04:59:42;;;;;;;1.10;0.50;;;3.80;99.90;;;;;;5007019;28;20030;-82
2021/12/28 05:02:08;;;;;;;1.35;0.60;;;3.70;99.90;;;;;;5024678;28;20030;-82
2021/12/28 05:05:12;;;;;;;;;;;;;;;;;;;;;
2021/12/28 05:07:39;;;;;;;0.85;0.50;;;3.70;99.90;;;;;;5001761;28;20121;-82
2021/12/28 05:10:06;;;;;;;1.55;0.70;;;3.70;99.90;;;;;;5029407;28;20021;-82
2021/12/28 05:12:32;;;;;;;0.45;0.45;;;3.60;99.90;;;;;;5006336;28;20041;-83
2021/12/28 05:14:59;;;;;;;0.47;0.35;;;3.60;99.90;;;;;;5022841;28;20029;-79
2021/12/28 05:17:26;;;;;;;2.03;0.43;;;3.60;99.90;;;;;;5038723;28;20033;-78
2021/12/28 05:19:52;;;;;;;1.70;0.65;;;3.60;99.90;;;;;;5024018;28;20029;-81
2021/12/28 05:22:20;;;;;;;1.13;0.52;;;3.50;99.90;;;;;;5036943;28;20494;-81
2021/12/28 05:24:46;;;;;;;1.85;0.50;;;3.60;99.90;;;;;;5048867;28;20029;-80
2021/12/28 05:27:11;;;;;;;3.53;0.63;;;3.60;99.90;;;;;;5063532;28;20047;-81
2021/12/28 05:29:37;;;;;;;0.38;0.38;;;3.60;99.90;;;;;;5063408;28;20079;-81
2021/12/28 05:32:03;;;;;;;2.88;0.90;;;3.60;99.90;;;;;;5043489;28;20017;-81
2021/12/28 05:34:29;;;;;;;1.10;0.93;;;3.60;99.90;;;;;;5060753;28;20481;-82
2021/12/28 05:36:55;;;;;;;2.05;0.55;;;3.60;99.90;;;;;;5061078;28;20062;-81
2021/12/28 05:39:21;;;;;;;3.03;0.80;;;3.60;99.90;;;;;;5019697;28;20502;-82
2021/12/28 05:41:46;;;;;;;0.95;0.50;;;3.60;99.90;;;;;;5024818;28;20057;-83
2021/12/28 05:44:12;;;;;;;1.67;0.50;;;3.70;99.90;;;;;;5034486;28;20010;-81
2021/12/28 05:46:38;;;;;;;0.75;0.30;;;3.70;99.90;;;;;;5026369;28;20105;-82
2021/12/28 05:49:04;;;;;;;3.72;0.80;;;3.70;99.90;;;;;;5023701;28;20044;-82
2021/12/28 05:51:30;;;;;;;0.63;0.30;;;3.70;99.90;;;;;;5034465;28;20037;-83
2021/12/28 05:53:55;;;;;;;0.88;0.73;;;3.70;99.90;;;;;;5040138;28;20017;-81
2021/12/28 05:56:21;;;;;;;1.55;0.63;;;3.80;99.90;;;;;;5025422;28;20036;-83
2021/12/28 05:58:47;;;;;;;2.28;0.60;;;3.80;99.90;;;;;;5056817;28;20021;-82
2021/12/28 06:01:13;;;;;;;1.67;0.75;;;3.90;99.90;;;;;;5037571;28;20032;-82
2021/12/28 06:03:39;;;;;;;0.77;0.70;;;3.90;99.90;;;;;;5036108;28;20029;-82
2021/12/28 06:06:04;;;;;;;1.15;0.52;;;4.00;99.90;;;;;;5023164;28;20085;-81
2021/12/28 06:08:30;;;;;;;2.90;0.55;;;4.10;99.90;;;;;;5033235;28;20041;-82
2021/12/28 06:10:56;;;;;;;1.15;0.40;;;4.20;99.90;;;;;;5041735;28;20088;-81
2021/12/28 06:13:23;;;;;;;1.95;0.65;;;4.20;99.90;;;;;;5025923;28;20033;-81
2021/12/28 06:15:49;;;;;;;1.30;0.60;;;4.40;99.90;;;;;;5042049;28;20020;-81
2021/12/28 06:18:15;;;;;;;1.08;0.50;;;4.40;99.90;;;;;;5031936;28;20382;-82
2021/12/28 06:20:41;;;;;;;0.98;0.45;;;4.50;99.90;;;;;;5004340;28;20113;-82
2021/12/28 06:23:06;;;;;;;0.65;0.50;;;4.50;99.90;;;;;;5052381;28;20037;-81
2021/12/28 06:25:33;;;;;;;1.85;0.85;;;4.60;99.90;;;;;;5029099;28;20030;-81
2021/12/28 06:27:59;;;;;;;2.67;1.08;;;4.70;99.90;;;;;;5005805;28;20435;-83
2021/12/28 06:30:25;;;;;;;1.58;0.63;;;4.70;99.90;;;;;;5035253;28;20527;-83
2021/12/28 06:32:50;;;;;;;1.15;0.70;;;4.80;99.90;;;;;;5017990;28;20029;-82
2021/12/28 06:35:16;;;;;;;2.47;1.08;;;4.90;99.90;;;;;;5046149;28;20080;-82
2021/12/28 06:37:43;;;;;;;0.70;0.60;;;4.80;99.90;;;;;;5035979;28;20110;-83
2021/12/28 06:40:11;;;;;;;1.00;0.60;;;4.80;99.90;;;;;;5021106;28;20018;-81
2021/12/28 06:42:37;;;;;;;1.65;0.60;;;4.80;99.90;;;;;;5035771;28;20126;-81
2021/12/28 06:45:03;;;;;;;1.55;0.80;;;4.90;99.90;;;;;;5038618;28;20021;-82
2021/12/28 06:47:29;;;;;;;0.95;0.80;;;4.90;99.90;;;;;;5025707;28;20022;-81
2021/12/28 06:49:55;;;;;;;1.75;0.90;;;4.90;99.90;;;;;;5023156;28;20025;-84
2021/12/28 06:52:21;;;;;;;2.22;0.85;;;4.90;99.90;;;;;;5040270;28;20037;-82
2021/12/28 06:54:46;;;;;;;2.58;0.85;;;4.90;99.90;;;;;;5046005;28;20038;-84
2021/12/28 06:57:12;;;;;;;1.95;0.73;;;4.90;99.90;;;;;;5051141;28;20045;-81
2021/12/28 06:59:45;;;;;;;0.93;0.60;;;4.80;99.90;;;;;;5019470;28;20026;-82
2021/12/28 07:02:16;;;;;;;2.17;0.68;;;4.80;99.90;;;;;;5046330;28;20093;-82
2021/12/28 07:04:42;;;;;;;0.95;0.40;;;4.80;99.90;;;;;;5051167;28;20025;-82
2021/12/28 07:07:09;;;;;;;1.83;0.47;;;4.80;99.90;;;;;;5041244;28;20088;-82
2021/12/28 07:09:35;;;;;;;0.60;0.28;;;4.90;99.90;;;;;;5040477;28;20021;-83
2021/12/28 07:12:01;;;;;;;0.40;0.40;;;4.90;99.90;;;;;;5042064;28;20089;-81
2021/12/28 07:14:28;;;;;;;1.40;0.40;;;5.00;99.90;;;;;;5052658;28;20122;-82
2021/12/28 07:16:55;;;;;;;2.42;0.93;;;5.10;99.90;;;;;;5047228;28;20017;-82
2021/12/28 07:19:46;;;;;;;0.63;0.40;;;5.10;99.90;;;;;;5022570;28;20085;-83
2021/12/28 07:22:12;;;;;;;1.58;0.82;;;5.20;99.90;;;;;;5018000;28;20045;-82
2021/12/28 07:24:38;;;;;;;1.52;0.77;;;5.30;99.90;;;;;;5038965;28;20123;-82
2021/12/28 07:27:04;;;;;;;1.55;0.88;;;5.30;99.90;;;;;;5021886;28;20093;-82
2021/12/28 07:29:31;;;;;;;1.30;0.40;;;5.40;99.90;;;;;;5022424;28;20392;-84
2021/12/28 07:31:56;;;;;;;1.42;0.60;;;5.40;99.90;;;;;;5034161;28;20056;-82
2021/12/28 07:34:22;;;;;;;1.23;0.75;;;5.50;99.90;;;;;;5053300;28;20012;-81
2021/12/28 07:36:48;;;;;;;0.93;0.50;;;5.50;99.90;;;;;;5042565;28;20061;-80
2021/12/28 07:39:14;;;;;;;0.85;0.52;;;5.50;99.90;;;;;;5034715;28;20042;-81
2021/12/28 07:41:40;;;;;;;1.13;0.52;;;5.60;99.90;;;;;;5038681;28;20021;-82
2021/12/28 07:44:06;;;;;;;4.00;1.58;;;5.60;99.90;;;;;;5048987;28;20065;-82
2021/12/28 07:46:32;;;;;;;3.85;2.55;;;5.60;99.90;;;;;;5053019;28;20041;-83
2021/12/28 07:48:58;;;;;;;1.27;0.98;;;5.60;99.90;;;;;;5035980;28;20430;-82
2021/12/28 07:51:23;;;;;;;3.30;0.93;;;5.60;99.90;;;;;;5060217;28;20029;-83
2021/12/28 07:53:49;;;;;;;12.20;7.30;;;5.60;99.90;;;;;;5052207;28;20044;-83
2021/12/28 07:56:15;;;;;;;6.10;4.20;;;5.60;99.90;;;;;;5062740;28;20170;-83
2021/12/28 07:58:41;;;;;;;8.77;3.55;;;5.60;99.90;;;;;;5043622;28;20048;-82
2021/12/28 08:01:06;;;;;;;4.85;1.60;;;5.60;99.90;;;;;;5029290;28;20021;-81
2021/12/28 08:03:32;;;;;;;3.58;1.33;;;5.60;99.90;;;;;;5029689;28;20022;-80
2021/12/28 08:05:58;;;;;;;2.47;0.80;;;5.60;99.90;;;;;;5020421;28;20033;-79
2021/12/28 08:08:23;;;;;;;2.35;1.00;;;5.60;99.90;;;;;;5042922;28;20029;-81
2021/12/28 08:10:49;;;;;;;1.35;0.57;;;5.60;99.90;;;;;;5024871;28;20030;-83
2021/12/28 08:13:16;;;;;;;2.00;0.95;;;5.60;99.90;;;;;;5020396;28;20021;-83
2021/12/28 08:15:42;;;;;;;1.55;0.75;;;5.60;99.90;;;;;;5030312;28;20025;-85
2021/12/28 08:18:09;;;;;;;0.85;0.63;;;5.60;99.90;;;;;;5023555;28;20054;-85
2021/12/28 08:20:36;;;;;;;1.40;0.70;;;5.70;99.90;;;;;;5026818;28;20057;-81
2021/12/28 08:23:02;;;;;;;1.75;0.90;;;5.70;99.90;;;;;;5046837;28;20375;-82
2021/12/28 08:25:29;;;;;;;0.88;0.82;;;5.80;99.90;;;;;;5061848;28;20066;-83
2021/12/28 08:27:56;;;;;;;1.42;0.90;;;5.80;99.90;;;;;;5064599;28;20048;-82
2021/12/28 08:30:22;;;;;;;2.08;1.20;;;5.90;99.90;;;;;;5047405;28;20034;-82
2021/12/28 08:32:48;;;;;;;1.02;0.65;;;5.90;99.90;;;;;;5047876;28;20081;-81
2021/12/28 08:35:15;;;;;;;1.50;0.70;;;5.90;99.90;;;;;;5031733;28;20048;-82
2021/12/28 08:37:42;;;;;;;1.25;0.70;;;5.90;99.90;;;;;;5047661;28;20037;-82
2021/12/28 08:40:09;;;;;;;2.15;1.00;;;6.10;99.90;;;;;;5044706;28;20025;-81
2021/12/28 08:42:35;;;;;;;1.50;0.82;;;6.20;99.90;;;;;;5043537;28;20076;-80
2021/12/28 08:45:02;;;;;;;1.45;0.98;;;6.20;99.90;;;;;;5025217;28;20410;-79
2021/12/28 08:47:27;;;;;;;2.75;0.77;;;6.30;99.90;;;;;;5042316;28;20021;-80
2021/12/28 08:49:56;;;;;;;1.83;0.70;;;6.30;99.90;;;;;;5047065;28;20033;-82
2021/12/28 08:52:22;;;;;;;1.48;0.90;;;6.30;99.90;;;;;;5028124;28;20100;-82
2021/12/28 08:54:49;;;;;;;0.55;0.55;;;6.30;99.90;;;;;;5023455;28;20022;-83
2021/12/28 08:57:15;;;;;;;0.73;0.73;;;6.30;99.90;;;;;;5026090;28;20025;-82
2021/12/28 08:59:41;;;;;;;0.60;0.60;;;6.40;99.90;;;;;;5025254;28;20018;-82
2021/12/28 09:02:08;;;;;;;0.63;0.43;;;6.40;99.90;;;;;;5021541;28;20065;-83
2021/12/28 09:04:36;;;;;;;0.63;0.45;;;6.40;99.90;;;;;;5010031;28;20033;-82
2021/12/28 09:07:02;;;;;;;0.90;0.43;;;6.40;99.90;;;;;;5007241;28;20084;-82
2021/12/28 09:09:28;;;;;;;1.23;1.13;;;6.40;99.90;;;;;;5023878;28;20045;-81
2021/12/28 09:11:54;;;;;;;1.85;0.85;;;6.40;99.90;;;;;;5043930;28;20060;-83
2021/12/28 09:14:20;;;;;;;1.15;0.82;;;6.40;99.90;;;;;;5042353;28;20386;-85
2021/12/28 09:16:45;;;;;;;1.42;0.57;;;6.40;99.90;;;;;;5025030;28;20021;-83
2021/12/28 09:19:11;;;;;;;1.75;0.73;;;6.30;99.90;;;;;;5036774;28;20022;-83
2021/12/28 09:21:37;;;;;;;1.50;0.50;;;6.30;99.90;;;;;;5031027;28;20044;-83
2021/12/28 09:24:03;;;;;;;1.77;0.80;;;6.40;99.90;;;;;;5036306;28;20036;-82
2021/12/28 09:26:29;;;;;;;1.42;1.25;;;6.50;99.90;;;;;;5043986;28;20084;-83
2021/12/28 09:28:55;;;;;;;2.15;0.80;;;6.50;99.90;;;;;;5038454;28;20057;-82
2021/12/28 09:31:21;;;;;;;1.30;0.90;;;6.60;99.90;;;;;;5027142;28;20044;-83
2021/12/28 09:33:47;;;;;;;3.28;1.15;;;6.60;99.90;;;;;;5026171;28;20026;-83
2021/12/28 09:36:14;;;;;;;2.28;1.13;;;6.70;99.90;;;;;;5038963;28;20022;-82
2021/12/28 09:38:42;;;;;;;1.92;1.05;;;6.90;99.90;;;;;;5023700;28;20413;-83
2021/12/28 09:41:10;;;;;;;1.58;1.05;;;7.00;99.90;;;;;;5006957;28;20029;-83
2021/12/28 09:43:36;;;;;;;0.90;0.80;;;7.10;99.90;;;;;;5007379;28;20049;-81
2021/12/28 09:46:02;;;;;;;2.20;0.90;;;7.20;99.90;;;;;;5019001;28;20033;-84
2021/12/28 09:48:28;;;;;;;3.17;1.10;;;7.30;99.90;;;;;;5030328;28;20026;-83
2021/12/28 09:50:54;;;;;;;3.05;1.40;;;7.30;99.90;;;;;;5047101;28;20033;-83
2021/12/28 09:53:20;;;;;;;2.75;1.15;;;7.40;99.90;;;;;;5038254;28;20033;-82
2021/12/28 09:55:46;;;;;;;2.88;1.20;;;7.40;99.90;;;;;;5052317;28;20022;-84
2021/12/28 09:58:12;;;;;;;1.58;1.00;;;7.30;99.90;;;;;;5035829;28;20045;-83
2021/12/28 10:00:38;;;;;;;0.80;0.80;;;7.20;99.90;;;;;;5028193;28;20026;-83
2021/12/28 10:03:04;;;;;;;1.83;1.13;;;7.20;99.90;;;;;;5026638;28;20053;-83
2021/12/28 10:05:31;;;;;;;1.25;0.90;;;7.10;99.90;;;;;;5024662;28;20026;-84
2021/12/28 10:08:00;;;;;;;3.22;1.30;;;7.00;99.90;;;;;;5015862;28;20072;-85
2021/12/28 10:10:30;;;;;;;3.28;1.70;;;7.00;99.90;;;;;;5023714;28;20018;-83
2021/12/28 10:13:00;;;;;;;4.32;2.20;;;7.10;99.90;;;;;;5034529;28;20017;-84
2021/12/28 10:15:28;;;;;;;3.67;2.22;;;7.20;99.90;;;;;;5032609;28;20455;-83
2021/12/28 10:17:57;;;;;;;4.22;2.47;;;7.30;99.90;;;;;;5022236;28;20165;-83
2021/12/28 10:20:37;;;;;;;3.17;1.83;;;7.30;99.90;;;;;;5009068;28;20025;-84
2021/12/28 10:23:05;;;;;;;2.55;1.30;;;7.30;99.90;;;;;;5035038;28;20041;-83
2021/12/28 10:25:36;;;;;;;2.97;1.02;;;7.30;99.90;;;;;;5039092;28;20557;-83
2021/12/28 10:28:17;;;;;;;1.80;0.90;;;7.30;99.90;;;;;;5021750;28;20128;-82
2021/12/28 10:30:54;;;;;;;2.17;1.05;;;7.30;99.90;;;;;;5024917;28;20025;-81
2021/12/28 10:33:24;;;;;;;2.47;1.05;;;7.20;99.90;;;;;;5021631;28;20033;-81
2021/12/28 10:35:52;;;;;;;1.95;0.80;;;7.10;99.90;;;;;;5040100;28;20017;-81
2021/12/28 10:38:22;;;;;;;1.67;0.90;;;7.00;99.90;;;;;;5047310;28;20029;-81
2021/12/28 10:40:59;;;;;;;1.45;1.10;;;6.90;99.90;;;;;;5020837;28;20115;-80
2021/12/28 10:43:32;;;;;;;1.08;0.77;;;6.80;99.90;;;;;;5020221;28;20058;-80
2021/12/28 10:46:03;;;;;;;0.90;0.70;;;6.80;99.90;;;;;;5023337;28;20034;-83
2021/12/28 10:48:37;;;;;;;1.33;0.70;;;7.00;99.90;;;;;;5021741;28;20064;-82
2021/12/28 10:51:13;;;;;;;1.80;0.95;;;7.00;99.90;;;;;;5024485;28;20026;-82
2021/12/28 10:56:57;;;;;;;1.00;0.70;;;7.10;99.90;;;;;;5040939;28;20049;-80
2021/12/28 10:59:41;;;;;;;0.85;0.63;;;7.20;99.90;;;;;;5032275;28;20033;-81
2021/12/28 11:02:20;;;;;;;0.73;0.70;;;7.20;99.90;;;;;;5040833;28;20510;-81
2021/12/28 11:04:46;;;;;;;1.85;0.85;;;7.30;99.90;;;;;;5042015;28;20036;-82
2021/12/28 11:07:12;;;;;;;1.23;1.02;;;7.40;99.90;;;;;;5025379;28;20020;-83
2021/12/28 11:09:46;;;;;;;1.08;0.98;;;7.40;99.90;;;;;;5025347;28;20029;-82
2021/12/28 11:12:12;;;;;;;2.15;0.98;;;7.50;99.90;;;;;;5035119;28;20029;-81
2021/12/28 11:14:38;;;;;;;2.50;0.85;;;7.50;99.90;;;;;;5042844;28;20025;-81
2021/12/28 11:17:06;;;;;;;0.93;0.80;;;7.60;99.90;;;;;;5022920;28;20079;-81
2021/12/28 11:19:35;;;;;;;0.63;0.63;;;7.60;99.90;;;;;;5033768;28;20022;-81
2021/12/28 11:22:03;;;;;;;1.60;0.80;;;7.60;99.90;;;;;;5034867;28;20038;-81
2021/12/28 11:24:34;;;;;;;1.60;0.80;;;7.70;99.90;;;;;;5044666;28;20045;-80
2021/12/28 11:27:03;;;;;;;1.87;0.77;;;7.70;99.90;;;;;;5035700;28;20052;-80
2021/12/28 11:29:38;;;;;;;1.55;0.80;;;7.70;99.90;;;;;;5035285;28;20006;-85
2021/12/28 11:32:21;;;;;;;2.90;1.20;;;7.80;99.90;;;;;;5010730;28;20041;-83
2021/12/28 11:34:58;;;;;;;1.67;0.88;;;7.80;99.90;;;;;;5019438;28;20031;-83
2021/12/28 11:37:26;;;;;;;2.13;1.17;;;7.90;99.90;;;;;;5028342;28;20028;-82
2021/12/28 11:40:03;;;;;;;1.67;1.10;;;7.90;99.90;;;;;;5028558;28;20030;-83
2021/12/28 11:42:30;;;;;;;1.30;0.93;;;7.90;99.90;;;;;;5043335;28;20038;-84
2021/12/28 11:44:56;;;;;;;1.55;0.68;;;8.00;99.90;;;;;;5041536;28;20463;-84
2021/12/28 11:47:23;;;;;;;3.25;0.60;;;8.00;99.90;;;;;;5025445;28;20091;-83
2021/12/28 11:49:51;;;;;;;0.60;0.60;;;8.00;99.90;;;;;;5025650;28;20076;-84
2021/12/28 11:52:19;;;;;;;1.40;0.90;;;8.00;99.90;;;;;;5029368;28;20491;-82
2021/12/28 11:54:48;;;;;;;0.60;0.60;;;8.00;99.90;;;;;;5036254;28;20030;-84
2021/12/28 11:57:20;;;;;;;0.82;0.82;;;8.00;99.90;;;;;;5023172;28;20034;-83
2021/12/28 11:59:56;;;;;;;2.30;0.90;;;8.00;99.90;;;;;;5022552;28;20390;-83
2021/12/28 12:02:43;;;;;;;1.33;0.73;;;7.90;99.90;;;;;;5004059;28;20184;-83
2021/12/28 12:05:29;;;;;;;1.75;0.68;;;7.80;99.90;;;;;;5032804;28;20481;-84
2021/12/28 12:12:16;;;;;;;1.05;0.73;;;8.00;99.90;;;;;;5148791;22;20060;-83
2021/12/28 12:15:08;;;;;;;1.52;1.20;;;8.20;99.90;;;;;;5043350;28;20408;-82
2021/12/28 12:20:25;;;;;;;2.88;0.90;;;8.30;99.90;;;;;;5061949;28;20033;-83
2021/12/28 12:23:14;;;;;;;1.48;1.00;;;8.40;99.90;;;;;;5022285;28;20052;-84
2021/12/28 12:25:49;;;;;;;1.25;0.80;;;8.50;99.90;;;;;;5030568;28;20061;-83
2021/12/28 12:28:29;;;;;;;2.50;1.02;;;8.70;99.90;;;;;;5041102;28;20018;-82
2021/12/28 12:30:57;;;;;;;1.23;0.90;;;8.90;99.90;;;;;;5036626;28;20036;-83
2021/12/28 12:33:32;;;;;;;1.70;1.20;;;9.10;99.90;;;;;;5036899;28;20017;-83
2021/12/28 12:35:59;;;;;;;1.63;1.20;;;9.10;99.90;;;;;;5036978;28;20093;-82
2021/12/28 12:38:25;;;;;;;2.55;1.27;;;9.00;99.90;;;;;;5018352;28;20021;-82
2021/12/28 12:40:59;;;;;;;2.30;1.25;;;8.90;99.90;;;;;;5036133;28;20030;-83
2021/12/28 12:43:38;;;;;;;1.30;1.20;;;8.90;99.90;;;;;;5020449;28;20381;-82
2021/12/28 12:46:12;;;;;;;2.03;1.60;;;8.90;99.90;;;;;;5026487;28;20033;-81
2021/12/28 12:48:41;;;;;;;1.95;1.38;;;8.80;99.90;;;;;;5034194;28;20040;-83
2021/12/28 12:51:22;;;;;;;2.70;1.73;;;8.90;99.90;;;;;;5034968;28;20014;-82
2021/12/28 12:54:13;;;;;;;1.92;1.30;;;8.80;99.90;;;;;;5025580;28;20045;-83
2021/12/28 12:57:00;;;;;;;5.45;2.83;;;8.90;99.90;;;;;;5035094;28;20064;-82
2021/12/28 12:59:40;;;;;;;2.72;1.48;;;9.00;99.90;;;;;;5052992;28;20005;-82
2021/12/28 13:02:08;;;;;;;1.80;1.10;;;9.00;99.90;;;;;;5038185;28;20036;-83
2021/12/28 13:04:54;;;;;;;0.95;0.85;;;9.10;99.90;;;;;;5033273;28;20093;-84
2021/12/28 13:07:21;;;;;;;1.23;0.65;;;9.10;99.90;;;;;;5028883;28;20030;-83
2021/12/28 13:09:58;;;;;;;1.02;0.85;;;9.00;99.90;;;;;;5059644;28;20132;-84
2021/12/28 13:12:24;;;;;;;0.70;0.70;;;8.90;99.90;;;;;;5052735;28;20045;-83
2021/12/28 13:14:50;;;;;;;0.80;0.80;;;8.90;99.90;;;;;;5060095;28;20035;-83